createdAt,value
2023-03-02T00:01:53.077Z,99593.19
2023-03-02T00:04:24.664Z,99601.00
2023-03-02T00:06:54.836Z,99598.31
2023-03-02T00:09:23.263Z,99595.25
2023-03-02T00:11:53.056Z,99597.19
2023-03-02T00:14:21.119Z,99590.66
2023-03-02T00:16:51.024Z,99591.19
2023-03-02T00:19:19.223Z,99591.25
2023-03-02T00:21:49.265Z,99589.09
2023-03-02T00:24:17.598Z,99582.31
2023-03-02T00:26:45.996Z,99586.50
2023-03-02T00:29:14.152Z,99579.75
2023-03-02T00:31:42.471Z,99582.91
2023-03-02T00:34:12.668Z,99579.44
2023-03-02T00:36:41.132Z,99565.66
2023-03-02T00:39:09.348Z,99564.59
2023-03-02T00:41:37.775Z,99564.78
2023-03-02T00:44:06.051Z,99563.28
2023-03-02T00:46:34.768Z,99557.88
2023-03-02T00:49:03.674Z,99558.69
2023-03-02T00:51:33.234Z,99553.59
2023-03-02T00:54:02.987Z,99555.91
2023-03-02T00:56:31.709Z,99549.91
2023-03-02T00:59:00.336Z,99544.25
2023-03-02T01:01:28.554Z,99547.66
2023-03-02T01:03:56.965Z,99543.38
2023-03-02T01:06:25.485Z,99539.16
2023-03-02T01:08:55.546Z,99538.25
2023-03-02T01:11:24.452Z,99542.50
2023-03-02T01:13:52.715Z,99521.25
2023-03-02T01:16:22.210Z,99524.13
2023-03-02T01:18:50.656Z,99517.09
2023-03-02T01:21:20.619Z,99524.00
2023-03-02T01:23:49.777Z,99512.78
2023-03-02T01:26:19.500Z,99509.13
2023-03-02T01:28:49.459Z,99509.34
2023-03-02T01:31:18.256Z,99501.25
2023-03-02T01:33:46.312Z,99500.19
2023-03-02T01:36:14.391Z,99500.88
2023-03-02T01:38:42.552Z,99495.81
2023-03-02T01:41:11.312Z,99501.00
2023-03-02T01:43:41.231Z,99497.63
2023-03-02T01:46:14.898Z,99497.22
2023-03-02T01:48:47.367Z,99494.94
2023-03-02T01:51:19.789Z,99493.72
2023-03-02T01:53:50.130Z,99494.72
2023-03-02T01:56:25.274Z,99493.22
2023-03-02T01:59:02.152Z,99490.50
2023-03-02T02:01:31.655Z,99491.28
2023-03-02T02:04:01.840Z,99491.41
2023-03-02T02:06:34.853Z,99500.72
2023-03-02T02:09:05.300Z,99487.81
2023-03-02T02:11:33.655Z,99497.66
2023-03-02T02:14:04.785Z,99493.31
2023-03-02T02:16:35.371Z,99499.59
2023-03-02T02:19:05.484Z,99509.91
2023-03-02T02:21:33.624Z,99500.97
2023-03-02T02:24:10.716Z,99506.41
2023-03-02T02:26:45.587Z,99501.03
2023-03-02T02:29:19.162Z,99494.88
2023-03-02T02:31:50.383Z,99489.97
2023-03-02T02:34:23.712Z,99490.97
2023-03-02T02:36:56.662Z,99491.59
2023-03-02T02:39:29.838Z,99490.13
2023-03-02T02:42:03.083Z,99484.38
2023-03-02T02:44:32.351Z,99482.53
2023-03-02T02:47:00.504Z,99488.78
2023-03-02T02:49:33.715Z,99483.59
2023-03-02T02:52:02.440Z,99489.03
2023-03-02T02:54:33.058Z,99483.78
2023-03-02T02:57:07.770Z,99488.16
2023-03-02T02:59:40.176Z,99484.47
2023-03-02T03:02:08.572Z,99483.56
2023-03-02T03:04:36.826Z,99482.59
2023-03-02T03:07:07.016Z,99489.69
2023-03-02T03:09:35.729Z,99490.66
2023-03-02T03:12:12.582Z,99481.31
2023-03-02T03:14:42.664Z,99479.94
2023-03-02T03:17:13.737Z,99475.97
2023-03-02T03:19:43.312Z,99476.19
2023-03-02T03:22:14.123Z,99479.53
2023-03-02T03:24:43.566Z,99470.63
2023-03-02T03:27:15.320Z,99478.59
2023-03-02T03:29:45.333Z,99470.84
2023-03-02T03:32:13.836Z,99464.66
2023-03-02T03:34:42.076Z,99464.03
2023-03-02T03:37:10.995Z,99469.78
2023-03-02T03:39:40.116Z,99467.53
2023-03-02T03:42:08.545Z,99480.88
2023-03-02T03:44:38.279Z,99476.53
2023-03-02T03:47:06.802Z,99472.84
2023-03-02T03:49:35.067Z,99470.59
2023-03-02T03:52:05.617Z,99464.63
2023-03-02T03:54:33.822Z,99466.44
2023-03-02T03:57:01.916Z,99461.16
2023-03-02T03:59:31.859Z,99462.03
2023-03-02T04:02:03.205Z,99468.34
2023-03-02T04:04:34.253Z,99475.19
2023-03-02T04:07:02.389Z,99468.41
2023-03-02T04:09:32.395Z,99471.88
2023-03-02T04:12:00.542Z,99477.53
2023-03-02T04:14:28.693Z,99474.78
2023-03-02T04:16:58.749Z,99475.69
2023-03-02T04:19:28.633Z,99474.94
2023-03-02T04:21:58.618Z,99475.00
2023-03-02T04:24:26.759Z,99474.97
2023-03-02T04:26:55.121Z,99475.34
2023-03-02T04:29:23.865Z,99477.94
2023-03-02T04:31:52.114Z,99480.81
2023-03-02T04:34:20.538Z,99481.75
2023-03-02T04:36:51.097Z,99479.41
2023-03-02T04:39:20.568Z,99483.81
2023-03-02T04:41:49.885Z,99476.97
2023-03-02T04:44:19.628Z,99468.56
2023-03-02T04:46:51.306Z,99476.19
2023-03-02T04:49:20.821Z,99478.78
2023-03-02T04:51:51.398Z,99472.72
2023-03-02T04:54:25.784Z,99471.97
2023-03-02T04:56:54.522Z,99476.41
2023-03-02T04:59:26.355Z,99470.38
2023-03-02T05:01:55.119Z,99476.31
2023-03-02T05:04:24.255Z,99481.53
2023-03-02T05:06:53.973Z,99491.03
2023-03-02T05:09:27.510Z,99486.72
2023-03-02T05:11:56.253Z,99497.38
2023-03-02T05:14:25.582Z,99493.84
2023-03-02T05:16:54.611Z,99495.66
2023-03-02T05:19:23.752Z,99484.59
2023-03-02T05:21:53.647Z,99490.59
2023-03-02T05:24:22.058Z,99493.50
2023-03-02T05:26:50.306Z,99489.16
2023-03-02T05:29:18.733Z,99495.13
2023-03-02T05:31:48.672Z,99493.41
2023-03-02T05:34:19.536Z,99493.38
2023-03-02T05:36:48.617Z,99498.63
2023-03-02T05:39:18.439Z,99489.03
2023-03-02T05:41:46.627Z,99504.59
2023-03-02T05:44:15.894Z,99496.59
2023-03-02T05:46:44.292Z,99503.63
2023-03-02T05:49:12.458Z,99502.66
2023-03-02T05:51:40.871Z,99493.06
2023-03-02T05:54:09.235Z,99509.50
2023-03-02T05:56:41.121Z,99504.41
2023-03-02T05:59:10.118Z,99500.13
2023-03-02T06:01:39.302Z,99502.72
2023-03-02T06:04:07.696Z,99501.09
2023-03-02T06:06:36.107Z,99506.19
2023-03-02T06:09:04.826Z,99511.22
2023-03-02T06:11:33.912Z,99500.75
2023-03-02T06:14:03.899Z,99512.78
2023-03-02T06:16:34.226Z,99512.63
2023-03-02T06:19:02.779Z,99506.50
2023-03-02T06:21:31.316Z,99509.00
2023-03-02T06:23:59.536Z,99511.00
2023-03-02T06:26:28.875Z,99508.09
2023-03-02T06:28:57.275Z,99504.66
2023-03-02T06:31:27.893Z,99511.50
2023-03-02T06:33:57.263Z,99514.16
2023-03-02T06:36:25.604Z,99517.53
2023-03-02T06:38:55.060Z,99514.19
2023-03-02T06:41:23.699Z,99520.31
2023-03-02T06:43:52.039Z,99514.06
2023-03-02T06:46:20.186Z,99523.56
2023-03-02T06:48:49.997Z,99513.09
2023-03-02T06:51:18.057Z,99516.38
2023-03-02T06:53:46.573Z,99514.84
2023-03-02T06:56:14.774Z,99511.16
2023-03-02T06:58:42.936Z,99512.59
2023-03-02T07:01:11.300Z,99507.25
2023-03-02T07:03:41.446Z,99513.38
2023-03-02T07:06:12.965Z,99504.41
2023-03-02T07:08:41.765Z,99516.41
2023-03-02T07:11:12.262Z,99509.25
2023-03-02T07:13:41.310Z,99511.69
2023-03-02T07:16:11.342Z,99504.53
2023-03-02T07:18:40.314Z,99502.38
2023-03-02T07:21:10.837Z,99499.81
2023-03-02T07:23:38.990Z,99500.44
2023-03-02T07:26:09.082Z,99507.63
2023-03-02T07:28:39.688Z,99498.59
2023-03-02T07:31:08.640Z,99499.34
2023-03-02T07:33:37.620Z,99503.34
2023-03-02T07:36:07.561Z,99495.53
2023-03-02T07:38:38.778Z,99502.38
2023-03-02T07:41:11.569Z,99505.56
2023-03-02T07:43:39.827Z,99504.28
2023-03-02T07:46:08.321Z,99505.44
2023-03-02T07:48:37.249Z,99505.47
2023-03-02T07:51:07.553Z,99512.19
2023-03-02T07:53:37.630Z,99511.72
2023-03-02T07:56:10.136Z,99501.50
2023-03-02T07:58:38.601Z,99502.00
2023-03-02T08:01:07.487Z,99506.13
2023-03-02T08:03:36.223Z,99496.16
2023-03-02T08:06:07.838Z,99502.41
2023-03-02T08:08:38.550Z,99504.25
2023-03-02T08:11:07.795Z,99509.34
2023-03-02T08:13:39.305Z,99518.09
2023-03-02T08:16:09.760Z,99509.19
2023-03-02T08:18:39.290Z,99509.75
2023-03-02T08:21:13.740Z,99510.56
2023-03-02T08:23:43.551Z,99504.97
2023-03-02T08:26:14.290Z,99506.72
2023-03-02T08:28:44.727Z,99506.69
2023-03-02T08:31:13.737Z,99505.78
2023-03-02T08:33:42.418Z,99516.81
2023-03-02T08:36:14.716Z,99511.41
2023-03-02T08:38:44.894Z,99513.66
2023-03-02T08:41:15.528Z,99506.53
2023-03-02T08:43:43.843Z,99507.34
2023-03-02T08:46:13.373Z,99506.91
2023-03-02T08:48:41.929Z,99502.47
2023-03-02T08:51:11.862Z,99506.50
2023-03-02T08:53:43.344Z,99503.63
2023-03-02T08:56:21.363Z,99499.06
2023-03-02T08:58:50.362Z,99497.47
2023-03-02T09:01:21.518Z,99507.06
2023-03-02T09:03:51.848Z,99494.84
2023-03-02T09:06:20.172Z,99490.88
2023-03-02T09:08:48.782Z,99499.19
2023-03-02T09:11:17.030Z,99493.75
2023-03-02T09:13:50.739Z,99490.91
2023-03-02T09:16:20.428Z,99482.19
2023-03-02T09:18:49.497Z,99489.16
2023-03-02T09:21:18.094Z,99487.81
2023-03-02T09:23:46.899Z,99484.16
2023-03-02T09:26:15.113Z,99475.84
2023-03-02T09:28:43.556Z,99477.56
2023-03-02T09:31:14.432Z,99477.22
2023-03-02T09:33:43.045Z,99478.94
2023-03-02T09:36:16.953Z,99476.97
2023-03-02T09:38:45.283Z,99480.78
2023-03-02T09:41:33.263Z,99472.25
2023-03-02T09:44:13.631Z,99474.13
2023-03-02T09:46:48.711Z,99472.63
2023-03-02T09:49:28.635Z,99467.72
2023-03-02T09:52:08.595Z,99463.56
2023-03-02T09:54:38.361Z,99470.69
2023-03-02T09:57:22.106Z,99463.53
2023-03-02T09:59:57.296Z,99460.88
2023-03-02T10:02:32.130Z,99456.94
2023-03-02T10:05:05.945Z,99458.53
2023-03-02T10:07:37.245Z,99454.22
2023-03-02T10:10:19.478Z,99454.63
2023-03-02T10:13:00.222Z,99444.94
2023-03-02T10:15:36.972Z,99453.34
2023-03-02T10:18:20.147Z,99449.56
2023-03-02T10:20:55.387Z,99446.44
2023-03-02T10:23:32.373Z,99441.94
2023-03-02T10:26:13.386Z,99437.09
2023-03-02T10:28:47.616Z,99445.47
2023-03-02T10:31:25.054Z,99442.50
2023-03-02T10:33:54.707Z,99440.69
2023-03-02T10:36:26.020Z,99440.75
2023-03-02T10:38:56.023Z,99437.56
2023-03-02T10:41:28.348Z,99429.47
2023-03-02T10:44:02.778Z,99436.34
2023-03-02T10:46:41.632Z,99435.44
2023-03-02T10:49:26.057Z,99437.75
2023-03-02T10:51:59.406Z,99436.50
2023-03-02T10:54:29.011Z,99424.53
2023-03-02T10:57:00.773Z,99432.34
2023-03-02T10:59:44.946Z,99426.13
2023-03-02T11:02:23.175Z,99424.13
2023-03-02T11:05:20.880Z,99426.59
2023-03-02T11:07:54.319Z,99416.34
2023-03-02T11:10:28.831Z,99413.94
2023-03-02T11:12:58.767Z,99412.75
2023-03-02T11:15:29.706Z,99404.34
2023-03-02T11:18:15.672Z,99405.16
2023-03-02T11:20:50.313Z,99408.00
2023-03-02T11:23:28.148Z,99408.16
2023-03-02T11:26:00.264Z,99400.44
2023-03-02T11:28:39.429Z,99390.75
2023-03-02T11:31:15.707Z,99396.09
2023-03-02T11:33:53.216Z,99393.22
2023-03-02T11:36:37.611Z,99395.03
2023-03-02T11:39:10.413Z,99394.34
2023-03-02T11:41:39.140Z,99392.00
2023-03-02T11:44:16.489Z,99388.00
2023-03-02T11:46:48.816Z,99381.13
2023-03-02T11:49:22.214Z,99377.44
2023-03-02T11:51:58.956Z,99379.72
2023-03-02T11:54:39.758Z,99377.41
2023-03-02T11:57:17.731Z,99384.69
2023-03-02T11:59:46.511Z,99372.31
2023-03-02T12:02:17.118Z,99368.94
2023-03-02T12:04:45.396Z,99368.16
2023-03-02T12:07:25.242Z,99362.38
2023-03-02T12:10:02.633Z,99352.91
2023-03-02T12:12:43.132Z,99361.94
2023-03-02T12:15:45.496Z,99354.63
2023-03-02T12:18:28.466Z,99345.34
2023-03-02T12:21:02.429Z,99350.63
2023-03-02T12:23:33.888Z,99356.13
2023-03-02T12:26:09.762Z,99355.53
2023-03-02T12:28:40.255Z,99346.63
2023-03-02T12:31:14.208Z,99344.22
2023-03-02T12:33:48.926Z,99337.03
2023-03-02T12:36:25.192Z,99332.16
2023-03-02T12:39:23.223Z,99325.72
2023-03-02T12:42:17.754Z,99317.97
2023-03-02T12:44:53.085Z,99314.78
2023-03-02T12:47:27.950Z,99314.56
2023-03-02T12:49:59.217Z,99322.91
2023-03-02T12:52:32.911Z,99311.88
2023-03-02T12:55:03.951Z,99308.56
2023-03-02T12:57:43.107Z,99308.72
2023-03-02T13:00:17.947Z,99302.91
2023-03-02T13:02:49.129Z,99300.53
2023-03-02T13:05:21.339Z,99296.09
2023-03-02T13:08:02.059Z,99296.63
2023-03-02T13:10:41.500Z,99292.84
2023-03-02T13:13:20.425Z,99276.84
2023-03-02T13:15:50.757Z,99277.63
2023-03-02T13:18:19.887Z,99278.75
2023-03-02T13:20:49.732Z,99266.53
2023-03-02T13:23:19.337Z,99270.66
2023-03-02T13:25:52.981Z,99268.47
2023-03-02T13:28:29.407Z,99265.66
2023-03-02T13:30:59.865Z,99270.66
2023-03-02T13:33:31.174Z,99265.22
2023-03-02T13:36:00.055Z,99266.06
2023-03-02T13:38:32.807Z,99259.59
2023-03-02T13:41:02.518Z,99260.78
2023-03-02T13:43:41.071Z,99253.41
2023-03-02T13:46:28.740Z,99249.47
2023-03-02T13:49:09.169Z,99247.47
2023-03-02T13:51:40.950Z,99251.81
2023-03-02T13:54:21.828Z,99243.59
2023-03-02T13:56:51.304Z,99243.16
2023-03-02T13:59:23.052Z,99239.00
2023-03-02T14:01:51.171Z,99242.72
2023-03-02T14:04:21.837Z,99237.84
2023-03-02T14:06:50.934Z,99236.63
2023-03-02T14:09:19.706Z,99233.28
2023-03-02T14:11:51.087Z,99217.16
2023-03-02T14:14:23.447Z,99220.38
2023-03-02T14:16:53.633Z,99212.41
2023-03-02T14:19:31.738Z,99217.13
2023-03-02T14:21:59.971Z,99215.44
2023-03-02T14:24:28.139Z,99216.84
2023-03-02T14:26:59.012Z,99214.88
2023-03-02T14:29:31.411Z,99213.56
2023-03-02T14:32:03.437Z,99207.19
2023-03-02T14:34:35.979Z,99204.16
2023-03-02T14:37:07.636Z,99201.34
2023-03-02T14:39:40.240Z,99205.56
2023-03-02T14:42:13.750Z,99191.22
2023-03-02T14:44:47.383Z,99199.94
2023-03-02T14:47:19.861Z,99192.44
2023-03-02T14:49:51.273Z,99196.69
2023-03-02T14:52:26.637Z,99198.97
2023-03-02T14:54:58.085Z,99212.03
2023-03-02T14:57:28.588Z,99210.97
2023-03-02T15:00:00.137Z,99202.34
2023-03-02T15:02:28.908Z,99206.72
2023-03-02T15:04:58.655Z,99201.75
2023-03-02T15:07:29.276Z,99203.59
2023-03-02T15:09:57.942Z,99217.34
2023-03-02T15:12:26.708Z,99211.13
2023-03-02T15:14:55.384Z,99211.34
2023-03-02T15:17:25.751Z,99209.66
2023-03-02T15:19:55.812Z,99200.53
2023-03-02T15:22:24.088Z,99211.84
2023-03-02T15:24:52.897Z,99199.69
2023-03-02T15:27:23.904Z,99197.75
2023-03-02T15:29:54.519Z,99200.44
2023-03-02T15:32:25.876Z,99203.72
2023-03-02T15:34:54.228Z,99206.97
2023-03-02T15:37:22.518Z,99215.88
2023-03-02T15:39:55.807Z,99206.19
2023-03-02T15:42:24.582Z,99206.50
2023-03-02T15:44:53.834Z,99206.25
2023-03-02T15:47:25.173Z,99204.50
2023-03-02T15:49:53.851Z,99205.13
2023-03-02T15:52:24.086Z,99199.06
2023-03-02T15:54:52.521Z,99195.00
2023-03-02T15:57:20.966Z,99206.28
2023-03-02T15:59:49.480Z,99206.69
2023-03-02T16:02:18.542Z,99206.25
2023-03-02T16:04:51.432Z,99208.69
2023-03-02T16:07:20.678Z,99208.00
2023-03-02T16:09:50.323Z,99209.84
2023-03-02T16:12:21.080Z,99214.63
2023-03-02T16:14:49.980Z,99220.19
2023-03-02T16:17:20.087Z,99221.53
2023-03-02T16:19:52.736Z,99208.38
2023-03-02T16:22:22.007Z,99223.50
2023-03-02T16:24:50.998Z,99211.03
2023-03-02T16:27:19.696Z,99216.56
2023-03-02T16:29:48.151Z,99213.78
2023-03-02T16:32:16.496Z,99217.69
2023-03-02T16:34:44.970Z,99217.06
2023-03-02T16:37:15.031Z,99222.03
2023-03-02T16:39:43.525Z,99222.13
2023-03-02T16:42:12.001Z,99229.63
2023-03-02T16:44:40.673Z,99225.88
2023-03-02T16:47:08.979Z,99223.34
2023-03-02T16:49:37.130Z,99225.94
2023-03-02T16:52:06.175Z,99237.63
2023-03-02T16:54:35.771Z,99243.50
2023-03-02T16:57:04.444Z,99250.41
2023-03-02T16:59:32.821Z,99250.13
2023-03-02T17:02:02.340Z,99254.63
2023-03-02T17:04:30.700Z,99250.34
2023-03-02T17:07:00.753Z,99254.81
2023-03-02T17:09:29.636Z,99265.00
2023-03-02T17:11:59.947Z,99265.78
2023-03-02T17:14:28.289Z,99261.44
2023-03-02T17:16:58.452Z,99264.47
2023-03-02T17:19:29.767Z,99277.44
2023-03-02T17:21:59.445Z,99274.38
2023-03-02T17:24:28.807Z,99279.59
2023-03-02T17:26:58.041Z,99275.88
2023-03-02T17:29:31.112Z,99278.19
2023-03-02T17:32:01.170Z,99278.94
2023-03-02T17:34:31.470Z,99283.44
2023-03-02T17:37:00.842Z,99287.19
2023-03-02T17:39:31.650Z,99289.41
2023-03-02T17:42:00.105Z,99292.59
2023-03-02T17:44:33.180Z,99301.53
2023-03-02T17:47:05.504Z,99283.66
2023-03-02T17:49:35.491Z,99305.88
2023-03-02T17:52:03.923Z,99309.00
2023-03-02T17:54:32.104Z,99314.97
2023-03-02T17:57:00.628Z,99310.31
2023-03-02T17:59:30.325Z,99314.13
2023-03-02T18:01:59.027Z,99304.97
2023-03-02T18:04:27.630Z,99314.88
2023-03-02T18:06:56.360Z,99317.81
2023-03-02T18:09:24.663Z,99317.53
2023-03-02T18:11:52.867Z,99324.97
2023-03-02T18:14:22.078Z,99326.78
2023-03-02T18:16:52.160Z,99322.94
2023-03-02T18:19:20.975Z,99326.22
2023-03-02T18:21:49.417Z,99330.56
2023-03-02T18:24:17.672Z,99335.38
2023-03-02T18:26:46.065Z,99334.53
2023-03-02T18:29:14.243Z,99334.47
2023-03-02T18:31:42.903Z,99336.69
2023-03-02T18:34:12.614Z,99329.19
2023-03-02T18:36:42.205Z,99329.09
2023-03-02T18:39:14.371Z,99333.81
2023-03-02T18:41:43.212Z,99344.47
2023-03-02T18:44:11.732Z,99349.44
2023-03-02T18:46:39.916Z,99346.75
2023-03-02T18:49:08.387Z,99340.44
2023-03-02T18:51:38.791Z,99364.09
2023-03-02T18:54:07.651Z,99355.91
2023-03-02T18:56:39.106Z,99353.91
2023-03-02T18:59:08.898Z,99353.94
2023-03-02T19:01:37.406Z,99352.25
2023-03-02T19:04:07.397Z,99354.34
2023-03-02T19:06:38.339Z,99359.53
2023-03-02T19:09:06.723Z,99355.50
2023-03-02T19:11:35.265Z,99360.31
2023-03-02T19:14:05.791Z,99359.63
2023-03-02T19:16:34.046Z,99361.19
2023-03-02T19:19:03.592Z,99364.19
2023-03-02T19:21:33.132Z,99364.19
2023-03-02T19:24:02.770Z,99358.59
2023-03-02T19:26:31.169Z,99365.97
2023-03-02T19:28:59.556Z,99372.41
2023-03-02T19:31:31.624Z,99374.22
2023-03-02T19:34:01.003Z,99377.78
2023-03-02T19:36:29.716Z,99384.53
2023-03-02T19:38:57.840Z,99383.03
2023-03-02T19:41:28.039Z,99381.13
2023-03-02T19:43:56.594Z,99381.47
2023-03-02T19:46:25.243Z,99377.75
2023-03-02T19:48:53.822Z,99381.88
2023-03-02T19:51:21.983Z,99384.56
2023-03-02T19:53:50.787Z,99382.22
2023-03-02T19:56:21.634Z,99380.34
2023-03-02T19:58:54.145Z,99383.91
2023-03-02T20:01:25.173Z,99376.97
2023-03-02T20:03:54.644Z,99378.66
2023-03-02T20:06:28.300Z,99385.56
2023-03-02T20:08:56.770Z,99385.91
2023-03-02T20:11:29.006Z,99388.97
2023-03-02T20:14:02.462Z,99388.34
2023-03-02T20:16:32.697Z,99384.69
2023-03-02T20:19:02.289Z,99389.88
2023-03-02T20:21:35.162Z,99387.34
2023-03-02T20:24:03.545Z,99385.81
2023-03-02T20:26:32.349Z,99385.38
2023-03-02T20:29:03.853Z,99379.25
2023-03-02T20:31:33.657Z,99385.47
2023-03-02T20:34:03.170Z,99382.44
2023-03-02T20:36:36.190Z,99384.31
2023-03-02T20:39:09.919Z,99382.31
2023-03-02T20:41:40.324Z,99383.63
2023-03-02T20:44:12.821Z,99380.94
2023-03-02T20:46:47.928Z,99387.69
2023-03-02T20:49:18.189Z,99381.84
2023-03-02T20:51:52.995Z,99387.69
2023-03-02T20:54:23.521Z,99390.66
2023-03-02T20:56:52.789Z,99397.94
2023-03-02T20:59:24.618Z,99401.69
2023-03-02T21:01:52.931Z,99413.59
2023-03-02T21:04:21.750Z,99410.44
2023-03-02T21:06:50.628Z,99411.75
2023-03-02T21:09:21.573Z,99414.31
2023-03-02T21:11:50.312Z,99416.22
2023-03-02T21:14:19.046Z,99412.28
2023-03-02T21:16:48.913Z,99413.25
2023-03-02T21:19:19.899Z,99409.84
2023-03-02T21:21:48.838Z,99416.59
2023-03-02T21:24:18.484Z,99424.91
2023-03-02T21:26:48.998Z,99418.94
2023-03-02T21:29:19.522Z,99412.34
2023-03-02T21:31:50.298Z,99413.81
2023-03-02T21:34:20.195Z,99419.63
2023-03-02T21:36:51.003Z,99417.56
2023-03-02T21:39:19.360Z,99418.72
2023-03-02T21:41:50.812Z,99427.59
2023-03-02T21:44:19.568Z,99420.88
2023-03-02T21:46:49.860Z,99429.88
2023-03-02T21:49:19.548Z,99429.69
2023-03-02T21:51:49.881Z,99428.81
2023-03-02T21:54:19.645Z,99421.41
2023-03-02T21:56:48.102Z,99424.25
2023-03-02T21:59:16.551Z,99431.78
2023-03-02T22:01:45.597Z,99429.09
2023-03-02T22:04:22.747Z,99422.41
2023-03-02T22:06:51.120Z,99424.44
2023-03-02T22:09:19.445Z,99432.78
2023-03-02T22:11:48.894Z,99431.25
2023-03-02T22:14:19.124Z,99435.88
2023-03-02T22:16:49.387Z,99432.00
2023-03-02T22:19:39.661Z,99436.47
2023-03-02T22:22:18.496Z,99437.06
2023-03-02T22:24:50.758Z,99437.25
2023-03-02T22:27:25.408Z,99436.09
2023-03-02T22:29:56.805Z,99435.72
2023-03-02T22:32:27.146Z,99441.88
2023-03-02T22:34:59.058Z,99427.63
2023-03-02T22:37:29.419Z,99436.53
2023-03-02T22:40:02.341Z,99429.03
2023-03-02T22:42:33.081Z,99430.50
2023-03-02T22:45:10.195Z,99432.91
2023-03-02T22:47:38.554Z,99432.56
2023-03-02T22:50:22.282Z,99428.94
2023-03-02T22:52:51.021Z,99430.28
2023-03-02T22:55:38.437Z,99423.44
2023-03-02T22:58:29.066Z,99436.84
2023-03-02T23:00:59.215Z,99432.66
2023-03-02T23:03:37.123Z,99431.00
2023-03-02T23:06:21.308Z,99422.13
2023-03-02T23:08:49.463Z,99430.75
2023-03-02T23:11:20.750Z,99421.38
2023-03-02T23:13:50.291Z,99428.63
2023-03-02T23:16:21.765Z,99425.31
2023-03-02T23:18:51.319Z,99433.75
2023-03-02T23:21:23.579Z,99426.53
2023-03-02T23:23:52.237Z,99425.88
2023-03-02T23:26:21.026Z,99420.50
2023-03-02T23:28:50.711Z,99424.75
2023-03-02T23:31:20.159Z,99424.75
2023-03-02T23:33:48.676Z,99426.22
2023-03-02T23:36:21.319Z,99437.97
2023-03-02T23:38:51.750Z,99433.53
2023-03-02T23:41:19.924Z,99437.28
2023-03-02T23:43:48.187Z,99432.59
2023-03-02T23:46:16.558Z,99431.41
2023-03-02T23:48:46.359Z,99439.38
2023-03-02T23:51:14.647Z,99442.28
2023-03-02T23:53:42.845Z,99442.28
2023-03-02T23:56:13.130Z,99437.06
2023-03-02T23:58:41.405Z,99436.06
